createdAt,value
2022-08-05T00:00:48.345Z,21.28
2022-08-05T00:03:36.813Z,21.30
2022-08-05T00:06:29.385Z,21.24
2022-08-05T00:09:15.715Z,21.20
2022-08-05T00:12:02.837Z,21.20
2022-08-05T00:14:58.923Z,21.19
2022-08-05T00:17:54.232Z,21.15
2022-08-05T00:20:41.807Z,21.10
2022-08-05T00:23:44.184Z,21.07
2022-08-05T00:26:29.871Z,21.07
2022-08-05T00:29:16.797Z,21.18
2022-08-05T00:32:12.870Z,21.08
2022-08-05T00:35:06.758Z,21.08
2022-08-05T00:37:54.772Z,21.07
2022-08-05T00:40:52.007Z,21.03
2022-08-05T00:43:47.134Z,20.99
2022-08-05T00:46:36.957Z,20.97
2022-08-05T00:49:32.675Z,20.96
2022-08-05T00:52:28.423Z,20.90
2022-08-05T00:55:08.876Z,20.85
2022-08-05T00:57:58.259Z,20.80
2022-08-05T01:00:38.967Z,20.76
2022-08-05T01:03:30.906Z,20.76
2022-08-05T01:06:15.535Z,20.73
2022-08-05T01:09:03.788Z,20.74
2022-08-05T01:11:46.311Z,20.74
2022-08-05T01:14:40.750Z,20.80
2022-08-05T01:17:40.333Z,20.75
2022-08-05T01:20:45.764Z,20.79
2022-08-05T01:24:01.007Z,20.79
2022-08-05T01:27:24.992Z,20.84
2022-08-05T01:30:18.886Z,20.87
2022-08-05T01:33:08.257Z,20.79
2022-08-05T01:35:58.823Z,20.87
2022-08-05T01:38:41.072Z,20.88
2022-08-05T01:41:31.733Z,20.81
2022-08-05T01:44:15.350Z,20.83
2022-08-05T01:47:02.780Z,20.85
2022-08-05T01:50:02.309Z,20.93
2022-08-05T01:52:51.710Z,20.92
2022-08-05T01:55:41.753Z,20.93
2022-08-05T01:58:44.733Z,20.95
2022-08-05T02:01:40.329Z,20.93
2022-08-05T02:04:23.080Z,20.85
2022-08-05T02:07:10.674Z,20.82
2022-08-05T02:10:08.722Z,20.79
2022-08-05T02:13:04.773Z,20.74
2022-08-05T02:16:16.399Z,20.76
2022-08-05T02:19:07.047Z,20.69
2022-08-05T02:21:54.386Z,20.61
2022-08-05T02:24:45.700Z,20.71
2022-08-05T02:27:59.093Z,20.61
2022-08-05T02:30:51.859Z,20.64
2022-08-05T02:33:57.335Z,20.59
2022-08-05T02:36:50.692Z,20.58
2022-08-05T02:39:34.756Z,20.51
2022-08-05T02:42:26.043Z,20.47
2022-08-05T02:45:08.761Z,20.50
2022-08-05T02:48:11.886Z,20.36
2022-08-05T02:51:01.639Z,20.42
2022-08-05T03:15:54.786Z,20.18
2022-08-05T03:18:42.793Z,20.33
2022-08-05T03:21:41.277Z,20.43
2022-08-05T03:24:30.833Z,20.50
2022-08-05T03:27:11.640Z,20.65
2022-08-05T03:30:08.048Z,20.70
2022-08-05T03:32:55.778Z,20.82
2022-08-05T03:35:43.788Z,20.90
2022-08-05T03:38:33.262Z,21.00
2022-08-05T03:41:23.775Z,21.05
2022-08-05T03:44:11.754Z,21.16
2022-08-05T03:46:51.854Z,21.29
2022-08-05T03:49:51.303Z,21.38
2022-08-05T03:54:59.312Z,21.49
2022-08-05T03:56:11.851Z,21.69
2022-08-05T03:59:01.741Z,21.92
2022-08-05T04:01:46.221Z,22.18
2022-08-05T04:04:30.737Z,22.49
2022-08-05T04:07:12.860Z,23.11
2022-08-05T04:10:01.724Z,23.48
2022-08-05T04:12:50.803Z,23.67
2022-08-05T04:15:32.783Z,24.19
2022-08-05T04:18:25.348Z,24.67
2022-08-05T04:21:12.726Z,25.26
2022-08-05T04:24:19.274Z,25.48
2022-08-05T04:27:09.751Z,25.43
2022-08-05T04:29:50.096Z,25.83
2022-08-05T04:32:37.799Z,26.04
2022-08-05T04:35:19.548Z,25.92
2022-08-05T04:38:07.069Z,26.22
2022-08-05T04:40:50.743Z,26.38
2022-08-05T04:43:37.734Z,26.40
2022-08-05T04:46:27.837Z,26.60
2022-08-05T04:49:12.287Z,26.87
2022-08-05T04:52:00.152Z,27.56
2022-08-05T04:54:49.469Z,27.90
2022-08-05T04:57:37.267Z,28.25
2022-08-05T05:00:18.473Z,28.65
2022-08-05T05:03:09.678Z,28.06
2022-08-05T05:06:40.592Z,28.35
2022-08-05T05:08:56.671Z,28.91
2022-08-05T05:11:54.405Z,29.03
2022-08-05T05:14:36.762Z,29.47
2022-08-05T05:17:24.882Z,29.44
2022-08-05T05:20:23.866Z,29.64
2022-08-05T05:23:20.011Z,29.45
2022-08-05T05:26:06.695Z,29.08
2022-08-05T05:28:47.220Z,29.58
2022-08-05T05:34:13.089Z,28.72
2022-08-05T05:37:02.620Z,29.23
2022-08-05T05:39:52.727Z,29.49
2022-08-05T05:42:32.751Z,30.43
2022-08-05T05:45:19.679Z,30.92
2022-08-05T05:48:06.000Z,31.41
2022-08-05T05:50:54.653Z,30.51
2022-08-05T05:53:45.991Z,30.24
2022-08-05T05:56:39.074Z,30.61
2022-08-05T05:59:25.640Z,31.04
2022-08-05T06:02:09.074Z,31.07
2022-08-05T06:04:56.651Z,31.42
2022-08-05T06:07:42.032Z,32.16
2022-08-05T06:10:36.601Z,32.50
2022-08-05T06:13:40.490Z,32.95
2022-08-05T06:16:32.782Z,32.79
2022-08-05T06:19:26.145Z,32.58
2022-08-05T06:22:15.637Z,32.48
2022-08-05T06:24:58.450Z,32.76
2022-08-05T06:28:12.137Z,33.15
2022-08-05T06:30:46.079Z,34.74
2022-08-05T06:33:44.413Z,34.64
2022-08-05T06:36:37.471Z,33.74
2022-08-05T06:39:39.625Z,33.79
2022-08-05T06:42:22.065Z,34.07
2022-08-05T06:45:09.280Z,33.93
2022-08-05T06:48:44.104Z,34.26
2022-08-05T06:51:03.601Z,32.72
2022-08-05T06:53:56.562Z,31.60
2022-08-05T06:56:54.472Z,30.93
2022-08-05T06:59:42.336Z,30.90
2022-08-05T07:02:34.697Z,31.19
2022-08-05T07:05:37.023Z,31.74
2022-08-05T07:08:17.659Z,31.62
2022-08-05T07:11:15.024Z,31.67
2022-08-05T07:14:29.224Z,32.11
2022-08-05T07:18:00.226Z,31.86
2022-08-05T07:20:32.878Z,32.34
2022-08-05T07:23:26.537Z,33.44
2022-08-05T07:26:22.449Z,32.60
2022-08-05T07:29:03.566Z,32.07
2022-08-05T07:31:54.926Z,32.61
2022-08-05T07:34:42.636Z,33.02
2022-08-05T07:37:23.134Z,33.16
2022-08-05T07:40:26.825Z,33.17
2022-08-05T07:43:21.229Z,32.70
2022-08-05T07:46:24.637Z,32.64
2022-08-05T07:49:13.781Z,33.60
2022-08-05T07:51:55.538Z,33.62
2022-08-05T07:54:41.147Z,34.23
2022-08-05T07:57:41.757Z,34.18
2022-08-05T08:00:28.893Z,34.75
2022-08-05T08:03:16.548Z,34.50
2022-08-05T08:06:08.538Z,34.47
2022-08-05T08:08:49.660Z,33.74
2022-08-05T08:11:47.810Z,33.98
2022-08-05T08:14:46.652Z,31.42
2022-08-05T08:17:27.866Z,30.66
2022-08-05T08:20:43.307Z,32.84
2022-08-05T08:24:02.355Z,35.50
2022-08-05T08:26:29.610Z,37.00
2022-08-05T08:29:45.310Z,36.14
2022-08-05T08:32:27.679Z,36.67
2022-08-05T08:35:16.483Z,39.44
2022-08-05T08:37:59.615Z,39.45
2022-08-05T08:40:51.488Z,41.79
2022-08-05T08:45:18.162Z,40.47
2022-08-05T08:46:39.482Z,42.48
2022-08-05T08:50:07.690Z,44.36
2022-08-05T08:52:37.456Z,42.94
2022-08-05T08:55:19.673Z,43.97
2022-08-05T08:58:26.006Z,43.78
2022-08-05T09:01:10.915Z,44.52
2022-08-05T09:04:04.463Z,41.42
2022-08-05T09:06:57.471Z,38.37
2022-08-05T09:09:39.548Z,36.69
2022-08-05T09:12:30.172Z,36.41
2022-08-05T09:15:11.579Z,33.75
2022-08-05T09:18:01.437Z,32.26
2022-08-05T09:20:44.493Z,32.75
2022-08-05T09:23:43.370Z,33.08
2022-08-05T09:26:30.458Z,31.83
2022-08-05T09:29:18.712Z,30.88
2022-08-05T09:32:39.888Z,31.27
2022-08-05T09:35:27.591Z,30.58
2022-08-05T09:38:18.676Z,31.10
2022-08-05T09:41:19.394Z,31.19
2022-08-05T09:44:06.424Z,31.47
2022-08-05T09:46:58.067Z,31.12
2022-08-05T09:49:40.257Z,28.82
2022-08-05T09:52:45.117Z,27.63
2022-08-05T09:55:58.579Z,26.88
2022-08-05T09:58:39.415Z,26.69
2022-08-05T10:01:31.799Z,26.65
2022-08-05T10:04:28.648Z,26.38
2022-08-05T10:07:20.467Z,26.58
2022-08-05T10:10:16.418Z,28.82
2022-08-05T10:13:15.392Z,31.14
2022-08-05T10:16:04.375Z,28.74
2022-08-05T10:18:54.398Z,27.26
2022-08-05T10:21:41.402Z,26.76
2022-08-05T10:24:21.496Z,26.61
2022-08-05T10:27:13.454Z,26.42
2022-08-05T10:30:07.087Z,27.27
2022-08-05T10:33:09.349Z,29.48
2022-08-05T10:35:59.948Z,28.26
2022-08-05T10:38:51.398Z,27.54
2022-08-05T10:41:45.148Z,28.20
2022-08-05T10:44:36.367Z,30.45
2022-08-05T10:47:27.089Z,29.48
2022-08-05T10:50:32.563Z,29.44
2022-08-05T10:53:46.396Z,30.81
2022-08-05T10:56:36.354Z,30.36
2022-08-05T11:00:03.581Z,29.39
2022-08-05T11:02:50.718Z,27.87
2022-08-05T11:05:39.379Z,27.37
2022-08-05T11:08:38.115Z,26.90
2022-08-05T11:11:53.318Z,26.73
2022-08-05T11:15:01.209Z,26.30
2022-08-05T11:17:59.162Z,26.90
2022-08-05T11:20:46.334Z,29.68
2022-08-05T11:24:04.885Z,32.28
2022-08-05T11:26:53.357Z,30.13
2022-08-05T11:29:47.114Z,30.73
2022-08-05T11:32:36.285Z,30.59
2022-08-05T11:36:07.992Z,29.73
2022-08-05T11:38:51.254Z,29.58
2022-08-05T11:42:01.767Z,28.75
2022-08-05T11:44:54.055Z,28.28
2022-08-05T11:47:48.425Z,27.91
2022-08-05T11:50:45.268Z,27.67
2022-08-05T11:53:33.747Z,27.26
2022-08-05T11:56:41.088Z,26.97
2022-08-05T11:59:49.923Z,27.19
2022-08-05T12:02:40.358Z,27.32
2022-08-05T12:05:32.309Z,27.41
2022-08-05T12:08:26.278Z,27.89
2022-08-05T12:11:09.596Z,28.08
2022-08-05T12:14:15.291Z,27.93
2022-08-05T12:16:56.700Z,27.49
2022-08-05T12:20:26.719Z,27.27
2022-08-05T12:22:46.243Z,27.13
2022-08-05T12:25:33.286Z,27.21
2022-08-05T12:28:15.046Z,27.04
2022-08-05T12:31:03.274Z,27.03
2022-08-05T12:33:45.480Z,27.21
2022-08-05T12:36:33.362Z,26.63
2022-08-05T12:39:14.394Z,26.76
2022-08-05T12:42:01.288Z,26.56
2022-08-05T12:44:43.101Z,26.53
2022-08-05T12:48:01.500Z,26.86
2022-08-05T12:52:10.273Z,26.90
2022-08-05T12:54:26.676Z,26.80
2022-08-05T12:57:15.246Z,26.55
2022-08-05T13:01:58.168Z,26.51
2022-08-05T13:03:08.246Z,26.42
2022-08-05T13:05:54.325Z,26.38
2022-08-05T13:08:50.790Z,26.29
2022-08-05T13:11:58.575Z,26.42
2022-08-05T13:14:47.248Z,26.64
2022-08-05T13:17:46.297Z,26.70
2022-08-05T13:20:42.227Z,26.52
2022-08-05T13:23:31.209Z,26.55
2022-08-05T13:26:11.637Z,26.33
2022-08-05T13:29:00.205Z,26.36
2022-08-05T13:32:04.931Z,26.24
2022-08-05T13:34:48.250Z,26.43
2022-08-05T13:37:35.424Z,26.52
2022-08-05T13:40:36.921Z,26.38
2022-08-05T13:43:22.199Z,26.40
2022-08-05T13:46:09.166Z,26.28
2022-08-05T13:48:57.932Z,26.35
2022-08-05T13:51:47.278Z,26.14
2022-08-05T13:54:27.763Z,26.32
2022-08-05T13:57:14.971Z,26.51
2022-08-05T14:00:02.257Z,26.40
2022-08-05T14:02:50.231Z,26.46
2022-08-05T14:06:04.749Z,26.44
2022-08-05T14:08:38.165Z,26.36
2022-08-05T14:11:21.072Z,26.33
2022-08-05T14:14:10.205Z,26.23
2022-08-05T14:16:55.338Z,26.14
2022-08-05T14:19:55.938Z,26.27
2022-08-05T14:22:49.892Z,26.37
2022-08-05T14:25:30.432Z,26.25
2022-08-05T14:28:26.009Z,26.35
2022-08-05T14:31:17.131Z,26.21
2022-08-05T14:34:04.115Z,26.11
2022-08-05T14:36:44.282Z,26.20
2022-08-05T14:39:49.573Z,26.25
2022-08-05T14:42:30.739Z,26.40
2022-08-05T14:45:18.135Z,26.27
2022-08-05T14:48:03.183Z,26.29
2022-08-05T14:50:53.110Z,26.27
2022-08-05T14:53:33.242Z,26.08
2022-08-05T14:56:31.086Z,26.08
2022-08-05T15:15:10.878Z,25.52
2022-08-05T15:17:56.260Z,25.56
2022-08-05T15:20:42.886Z,25.58
2022-08-05T15:23:23.373Z,25.59
2022-08-05T15:26:10.886Z,25.68
2022-08-05T15:28:52.000Z,25.62
2022-08-05T15:31:38.896Z,25.52
2022-08-05T15:34:32.119Z,25.55
2022-08-05T15:38:09.258Z,25.65
2022-08-05T15:41:00.431Z,25.51
2022-08-05T15:43:28.983Z,25.61
2022-08-05T15:46:32.874Z,25.46
2022-08-05T15:49:18.143Z,25.49
2022-08-05T15:52:16.661Z,25.55
2022-08-05T15:55:08.965Z,25.46
2022-08-05T15:58:01.893Z,25.54
2022-08-05T16:01:03.529Z,25.51
2022-08-05T16:03:54.981Z,25.32
2022-08-05T16:06:42.849Z,25.35
2022-08-05T16:09:31.033Z,25.34
2022-08-05T16:12:12.146Z,25.40
2022-08-05T16:14:58.887Z,25.36
2022-08-05T16:17:49.711Z,25.38
2022-08-05T16:20:38.307Z,25.31
2022-08-05T16:23:24.841Z,25.19
2022-08-05T16:26:15.948Z,25.12
2022-08-05T16:28:56.825Z,25.13
2022-08-05T16:31:56.426Z,25.04
2022-08-05T16:34:43.818Z,25.08
2022-08-05T16:38:02.565Z,25.06
2022-08-05T16:40:30.968Z,25.05
2022-08-05T16:43:19.798Z,25.04
2022-08-05T16:46:06.487Z,24.94
2022-08-05T16:48:59.780Z,24.97
2022-08-05T16:51:42.659Z,24.89
2022-08-05T16:54:37.813Z,24.95
2022-08-05T16:57:53.658Z,24.88
2022-08-05T17:00:34.486Z,24.82
2022-08-05T17:03:19.547Z,24.78
2022-08-05T17:06:07.753Z,24.84
2022-08-05T17:08:52.435Z,24.78
2022-08-05T17:11:48.636Z,24.71
2022-08-05T17:14:38.336Z,24.74
2022-08-05T17:17:19.692Z,24.73
2022-08-05T17:20:08.766Z,24.78
2022-08-05T17:22:55.860Z,24.70
2022-08-05T17:25:42.802Z,24.72
2022-08-05T17:28:29.773Z,24.57
2022-08-05T17:31:24.496Z,24.55
2022-08-05T17:34:18.063Z,24.47
2022-08-05T17:37:04.766Z,24.54
2022-08-05T17:40:23.797Z,24.56
2022-08-05T17:43:10.731Z,24.55
2022-08-05T17:45:58.756Z,24.63
2022-08-05T17:48:47.694Z,24.70
2022-08-05T17:51:40.456Z,24.73
2022-08-05T17:54:27.769Z,24.73
2022-08-05T17:57:14.966Z,24.69
2022-08-05T18:00:03.282Z,24.79
2022-08-05T18:02:53.802Z,24.78
2022-08-05T18:05:38.048Z,24.70
2022-08-05T18:08:24.746Z,24.69
2022-08-05T18:11:04.889Z,24.55
2022-08-05T18:13:52.739Z,24.60
2022-08-05T18:16:43.712Z,24.68
2022-08-05T18:19:39.872Z,24.64
2022-08-05T18:22:24.865Z,24.68
2022-08-05T18:25:25.319Z,24.65
2022-08-05T18:28:21.932Z,24.68
2022-08-05T18:31:08.113Z,24.62
2022-08-05T18:33:56.656Z,24.62
2022-08-05T18:36:44.747Z,24.61
2022-08-05T18:40:30.896Z,24.62
2022-08-05T18:42:34.251Z,24.52
2022-08-05T18:45:21.711Z,24.47
2022-08-05T18:48:02.179Z,24.46
2022-08-05T18:52:02.958Z,24.43
2022-08-05T18:54:07.229Z,24.42
2022-08-05T18:56:57.133Z,24.44
2022-08-05T19:00:03.107Z,24.41
2022-08-05T19:02:51.764Z,24.37
2022-08-05T19:06:11.284Z,24.39
2022-08-05T19:08:40.657Z,24.41
2022-08-05T19:11:28.358Z,24.35
2022-08-05T19:14:44.717Z,24.34
2022-08-05T19:17:16.843Z,24.30
2022-08-05T19:20:03.652Z,24.24
2022-08-05T19:22:44.742Z,24.20
2022-08-05T19:25:39.082Z,24.16
2022-08-05T19:28:29.630Z,24.12
2022-08-05T19:31:18.111Z,24.08
2022-08-05T19:34:00.116Z,24.03
2022-08-05T19:36:48.661Z,24.06
2022-08-05T19:39:50.520Z,24.02
2022-08-05T19:42:35.332Z,24.03
2022-08-05T19:45:22.701Z,23.98
2022-08-05T19:48:05.729Z,23.96
2022-08-05T19:50:52.651Z,23.88
2022-08-05T19:54:03.341Z,23.85
2022-08-05T19:56:40.074Z,23.86
2022-08-05T19:59:59.428Z,23.82
2022-08-05T20:02:33.818Z,23.74
2022-08-05T20:05:24.409Z,23.75
2022-08-05T20:08:05.127Z,23.74
2022-08-05T20:10:55.691Z,23.75
2022-08-05T20:13:58.844Z,23.64
2022-08-05T20:16:49.606Z,23.62
2022-08-05T20:19:41.187Z,23.62
2022-08-05T20:22:21.801Z,23.62
2022-08-05T20:25:13.587Z,23.61
2022-08-05T20:27:53.688Z,23.64
2022-08-05T20:30:44.646Z,23.64
2022-08-05T20:33:24.706Z,23.58
2022-08-05T20:36:11.591Z,23.58
2022-08-05T20:38:58.109Z,23.54
2022-08-05T20:41:45.470Z,23.58
2022-08-05T20:44:30.256Z,23.57
2022-08-05T20:47:17.563Z,23.45
2022-08-05T20:49:58.711Z,23.33
2022-08-05T20:52:47.586Z,23.31
2022-08-05T20:55:56.732Z,23.17
2022-08-05T20:58:35.565Z,23.11
2022-08-05T21:01:22.586Z,23.08
2022-08-05T21:04:27.076Z,22.90
2022-08-05T21:07:08.974Z,22.92
2022-08-05T21:09:56.912Z,22.90
2022-08-05T21:12:37.665Z,22.85
2022-08-05T21:15:25.551Z,22.78
2022-08-05T21:18:13.667Z,22.77
2022-08-05T21:21:01.563Z,22.71
2022-08-05T21:23:42.634Z,22.66
2022-08-05T21:26:29.597Z,22.62
2022-08-05T21:29:16.614Z,22.59
2022-08-05T21:32:03.540Z,22.55
2022-08-05T21:34:56.025Z,22.51
2022-08-05T21:37:53.341Z,22.45
2022-08-05T21:40:41.443Z,22.50
2022-08-05T21:43:28.603Z,22.46
2022-08-05T21:46:21.511Z,22.47
2022-08-05T21:49:07.147Z,22.43
2022-08-05T21:52:22.459Z,22.37
2022-08-05T21:55:06.161Z,22.31
2022-08-05T21:57:46.596Z,22.26
2022-08-05T22:00:33.550Z,22.26
2022-08-05T22:03:49.044Z,22.36
2022-08-05T22:06:35.324Z,22.46
2022-08-05T22:09:23.495Z,22.45
2022-08-05T22:12:26.591Z,22.43
2022-08-05T22:15:16.427Z,22.40
2022-08-05T22:18:00.054Z,22.34
2022-08-05T22:20:47.492Z,22.25
2022-08-05T22:24:02.677Z,22.15
2022-08-05T22:27:14.082Z,22.07
2022-08-05T22:30:04.460Z,22.03
2022-08-05T22:32:44.625Z,22.02
2022-08-05T22:35:48.109Z,21.99
2022-08-05T22:38:29.593Z,21.99
2022-08-05T22:42:04.713Z,21.93
2022-08-05T22:44:24.411Z,21.92
2022-08-05T22:47:12.423Z,21.88
2022-08-05T22:50:19.345Z,21.85
2022-08-05T22:53:04.320Z,21.84
2022-08-05T22:55:59.118Z,21.80
2022-08-05T22:58:46.421Z,21.78
2022-08-05T23:01:50.596Z,21.82
2022-08-05T23:04:33.440Z,21.74
2022-08-05T23:07:22.014Z,21.71
2022-08-05T23:10:03.552Z,21.75
2022-08-05T23:12:51.658Z,21.75
2022-08-05T23:15:41.382Z,21.78
2022-08-05T23:18:22.871Z,21.75
2022-08-05T23:21:10.145Z,21.70
2022-08-05T23:23:50.502Z,21.68
2022-08-05T23:26:39.440Z,21.70
2022-08-05T23:29:19.540Z,21.71
2022-08-05T23:32:07.435Z,21.69
2022-08-05T23:34:50.851Z,21.77
2022-08-05T23:37:37.406Z,21.70
2022-08-05T23:40:17.618Z,21.74
2022-08-05T23:43:25.408Z,21.74
2022-08-05T23:46:22.145Z,21.72
2022-08-05T23:49:16.404Z,21.66
2022-08-05T23:52:22.393Z,21.73
2022-08-05T23:55:16.363Z,21.67
2022-08-05T23:58:04.407Z,21.65
